Time;durP1;ratioP1;P1;durP2;ratioP2;P2;SDS_P1;SDS_P2;PMS_P1;PMS_P2;Temp;Humidity;BMP_temperature;BMP_pressure;BME280_temperature;BME280_humidity;BME280_pressure;Samples;Min_cycle;Max_cycle;Signal;HPM_P1;HPM_P2
2023/12/11 00:02:26;;;;;;;2.25;0.73;;;;;;;3.19;100.00;100731.53;5065378;28;20385;-70
2023/12/11 00:04:52;;;;;;;2.95;0.70;;;;;;;3.27;100.00;100727.59;5072144;28;20032;-70
2023/12/11 00:07:17;;;;;;;2.53;0.50;;;;;;;3.33;100.00;100708.34;5072479;28;20032;-70
2023/12/11 00:09:43;;;;;;;5.10;0.88;;;;;;;3.35;100.00;100711.66;5064242;28;20067;-70
2023/12/11 00:12:08;;;;;;;1.83;0.40;;;;;;;3.36;100.00;100712.47;5068021;28;20477;-70
2023/12/11 00:14:34;;;;;;;1.17;0.40;;;;;;;3.35;100.00;100714.22;5065147;28;20992;-70
2023/12/11 00:16:59;;;;;;;4.05;0.80;;;;;;;3.34;100.00;100726.28;5074351;28;20469;-70
2023/12/11 00:19:26;;;;;;;3.30;0.63;;;;;;;3.38;100.00;100726.09;5063496;28;20446;-70
2023/12/11 00:21:51;;;;;;;2.55;0.57;;;;;;;3.37;100.00;100717.53;5066118;28;20036;-70
2023/12/11 00:24:17;;;;;;;1.77;0.90;;;;;;;3.39;100.00;100717.44;5063666;28;20040;-70
2023/12/11 00:26:42;;;;;;;0.95;0.30;;;;;;;3.43;100.00;100708.63;5070688;28;20040;-69
2023/12/11 00:29:09;;;;;;;3.63;0.45;;;;;;;3.42;100.00;100687.19;5067803;28;20028;-70
2023/12/11 00:31:35;;;;;;;2.00;0.80;;;;;;;3.40;100.00;100678.72;5069877;28;20111;-71
2023/12/11 00:34:00;;;;;;;3.42;0.40;;;;;;;3.42;100.00;100671.72;5065547;28;20147;-69
2023/12/11 00:36:26;;;;;;;1.35;0.30;;;;;;;3.51;100.00;100670.34;5071222;28;20016;-70
2023/12/11 00:38:52;;;;;;;1.92;0.70;;;;;;;3.54;100.00;100659.84;5064153;28;20036;-71
2023/12/11 00:41:18;;;;;;;3.80;1.25;;;;;;;3.43;100.00;100639.91;5062074;28;20066;-70
2023/12/11 00:43:44;;;;;;;5.13;1.77;;;;;;;3.34;100.00;100635.31;5068654;28;20032;-70
2023/12/11 00:46:14;;;;;;;4.75;2.28;;;;;;;3.29;100.00;100640.78;5070469;28;20025;-70
2023/12/11 00:48:39;;;;;;;7.93;2.25;;;;;;;3.20;100.00;100645.66;5068850;28;20501;-70
2023/12/11 00:51:05;;;;;;;3.97;2.00;;;;;;;3.13;100.00;100641.78;5068396;28;20127;-70
2023/12/11 00:53:31;;;;;;;6.47;3.95;;;;;;;3.03;100.00;100638.09;5066658;28;20036;-70
2023/12/11 00:55:56;;;;;;;9.80;4.15;;;;;;;2.95;100.00;100652.25;5073259;28;20378;-70
2023/12/11 00:58:22;;;;;;;8.32;3.78;;;;;;;2.88;100.00;100643.25;5069580;28;20091;-70
2023/12/11 01:00:47;;;;;;;4.95;3.00;;;;;;;2.83;100.00;100631.59;5070879;28;20040;-70
2023/12/11 01:03:13;;;;;;;4.07;1.75;;;;;;;2.99;100.00;100646.00;5067690;28;20040;-70
2023/12/11 01:05:38;;;;;;;3.95;1.17;;;;;;;3.14;100.00;100635.72;5069485;28;20028;-70
2023/12/11 01:08:04;;;;;;;2.58;0.77;;;;;;;3.30;100.00;100631.31;5062283;28;20127;-70
2023/12/11 01:10:29;;;;;;;3.28;0.90;;;;;;;3.41;100.00;100617.75;5060618;28;20062;-70
2023/12/11 01:12:55;;;;;;;1.80;0.40;;;;;;;3.41;100.00;100613.41;5063103;28;20103;-70
2023/12/11 01:15:20;;;;;;;2.90;0.57;;;;;;;3.39;100.00;100628.13;5067182;28;20701;-70
2023/12/11 01:17:46;;;;;;;1.17;0.50;;;;;;;3.44;100.00;100638.97;5062930;28;20804;-70
2023/12/11 01:20:11;;;;;;;3.63;0.77;;;;;;;3.44;100.00;100638.97;5072665;28;20039;-70
2023/12/11 01:22:37;;;;;;;1.92;0.70;;;;;;;3.39;100.00;100635.84;5066628;28;20036;-70
2023/12/11 01:25:03;;;;;;;7.18;3.00;;;;;;;3.15;100.00;100650.25;5066890;28;20381;-70
2023/12/11 01:27:28;;;;;;;7.25;3.28;;;;;;;3.00;100.00;100652.00;5068997;28;20035;-70
2023/12/11 01:29:54;;;;;;;6.15;3.47;;;;;;;2.92;100.00;100662.75;5069042;28;20867;-70
2023/12/11 01:32:19;;;;;;;4.13;2.25;;;;;;;2.94;100.00;100675.50;5068711;28;20025;-70
2023/12/11 01:34:45;;;;;;;3.53;1.02;;;;;;;3.02;100.00;100669.91;5071615;28;20055;-70
2023/12/11 01:37:10;;;;;;;1.48;0.52;;;;;;;3.19;100.00;100670.56;5077694;28;20016;-70
2023/12/11 01:39:36;;;;;;;1.35;0.55;;;;;;;3.23;100.00;100666.06;5069091;28;20161;-70
2023/12/11 01:42:01;;;;;;;5.55;1.00;;;;;;;3.20;100.00;100672.22;5066986;28;20553;-70
2023/12/11 01:44:27;;;;;;;4.18;2.78;;;;;;;3.10;100.00;100675.44;5063022;28;20043;-70
2023/12/11 01:46:53;;;;;;;6.15;3.15;;;;;;;2.94;100.00;100671.19;5061273;28;20024;-70
2023/12/11 01:49:19;;;;;;;5.25;2.83;;;;;;;2.81;100.00;100680.59;5063982;28;20086;-70
2023/12/11 01:51:47;;;;;;;5.47;3.00;;;;;;;2.75;100.00;100668.06;5068105;28;20037;-70
2023/12/11 01:54:13;;;;;;;15.55;3.35;;;;;;;2.73;100.00;100679.38;5069838;28;20517;-70
2023/12/11 01:56:40;;;;;;;5.65;2.83;;;;;;;2.71;100.00;100694.88;5063800;28;20052;-70
2023/12/11 01:59:06;;;;;;;5.40;3.35;;;;;;;2.69;100.00;100686.44;5065634;28;20481;-70
2023/12/11 02:01:34;;;;;;;5.07;3.08;;;;;;;2.67;100.00;100689.09;5071481;28;20047;-70
2023/12/11 02:03:59;;;;;;;5.68;3.10;;;;;;;2.68;100.00;100687.34;5063293;28;20099;-70
2023/12/11 02:06:25;;;;;;;4.03;2.97;;;;;;;2.67;100.00;100680.53;5071186;28;20040;-70
2023/12/11 02:08:50;;;;;;;8.18;3.50;;;;;;;2.69;100.00;100685.59;5066762;28;20542;-70
2023/12/11 02:11:16;;;;;;;7.03;3.15;;;;;;;2.73;100.00;100679.38;5066148;28;20041;-70
2023/12/11 02:13:41;;;;;;;6.40;3.47;;;;;;;2.73;100.00;100667.34;5064984;28;20032;-70
2023/12/11 02:16:12;;;;;;;10.35;3.38;;;;;;;2.79;100.00;100669.56;5069756;28;20033;-70
2023/12/11 02:18:38;;;;;;;3.38;2.63;;;;;;;2.87;100.00;100658.78;5061976;28;20491;-70
2023/12/11 02:21:03;;;;;;;5.85;3.38;;;;;;;2.93;100.00;100656.66;5066241;28;20035;-70
2023/12/11 02:23:41;;;;;;;6.40;3.22;;;;;;;3.04;100.00;100656.03;5065176;28;20129;-70
2023/12/11 02:26:14;;;;;;;5.85;3.28;;;;;;;3.15;100.00;100652.81;5065227;28;20025;-70
2023/12/11 02:28:40;;;;;;;5.45;2.88;;;;;;;3.23;100.00;100655.78;5064637;28;20384;-70
2023/12/11 02:31:06;;;;;;;3.22;2.22;;;;;;;3.30;100.00;100668.19;5068796;28;20032;-70
2023/12/11 02:33:31;;;;;;;11.35;3.67;;;;;;;3.36;100.00;100666.94;5066591;28;20067;-70
2023/12/11 02:35:57;;;;;;;8.32;3.55;;;;;;;3.40;100.00;100658.13;5072770;28;20024;-70
2023/12/11 02:38:22;;;;;;;6.05;3.30;;;;;;;3.42;100.00;100652.88;5071795;28;20428;-70
2023/12/11 02:40:48;;;;;;;6.47;2.85;;;;;;;3.42;100.00;100640.81;5067776;28;20123;-70
2023/12/11 02:43:13;;;;;;;4.03;2.10;;;;;;;3.44;100.00;100643.31;5067366;28;20036;-70
2023/12/11 02:45:39;;;;;;;4.15;2.20;;;;;;;3.49;100.00;100656.72;5066422;28;20048;-70
2023/12/11 02:48:05;;;;;;;4.72;2.38;;;;;;;3.50;100.00;100653.22;5067034;28;20029;-70
2023/12/11 02:50:31;;;;;;;8.35;3.15;;;;;;;3.55;100.00;100654.59;5071936;28;20033;-70
2023/12/11 02:52:58;;;;;;;7.15;1.95;;;;;;;3.58;100.00;100646.69;5067467;28;20036;-70
2023/12/11 02:55:23;;;;;;;2.58;1.70;;;;;;;3.63;100.00;100648.97;5068149;28;20388;-70
2023/12/11 02:57:49;;;;;;;4.00;2.15;;;;;;;3.66;100.00;100631.59;5074741;28;20033;-70
2023/12/11 03:00:15;;;;;;;3.38;2.20;;;;;;;3.67;100.00;100620.34;5073223;28;20106;-70
2023/12/11 03:02:40;;;;;;;3.63;1.05;;;;;;;3.66;100.00;100618.69;5069430;28;20037;-70
2023/12/11 03:05:06;;;;;;;3.97;1.67;;;;;;;3.69;100.00;100607.38;5068725;28;20032;-70
2023/12/11 03:07:32;;;;;;;2.28;0.50;;;;;;;3.73;100.00;100595.13;5069540;28;20037;-70
2023/12/11 03:09:57;;;;;;;3.42;1.15;;;;;;;3.78;100.00;100606.75;5097660;27;20028;-70
2023/12/11 03:12:22;;;;;;;1.50;0.73;;;;;;;3.80;100.00;100614.41;5069314;28;20033;-70
2023/12/11 03:14:48;;;;;;;1.73;0.60;;;;;;;3.86;100.00;100608.84;5073650;28;20501;-70
2023/12/11 03:17:13;;;;;;;3.95;0.50;;;;;;;3.80;100.00;100599.75;5072526;28;20131;-70
2023/12/11 03:19:39;;;;;;;4.57;0.75;;;;;;;3.75;100.00;100617.28;5069668;28;20040;-70
2023/12/11 03:22:04;;;;;;;3.22;0.70;;;;;;;3.66;100.00;100610.13;5073591;28;20435;-70
2023/12/11 03:24:30;;;;;;;1.58;0.65;;;;;;;3.59;100.00;100601.16;5065666;28;20036;-70
2023/12/11 03:26:55;;;;;;;3.42;1.02;;;;;;;3.53;100.00;100604.94;5070291;28;20037;-70
2023/12/11 03:29:21;;;;;;;4.40;0.65;;;;;;;3.53;100.00;100597.19;5069483;28;20045;-70
2023/12/11 03:31:47;;;;;;;2.05;0.77;;;;;;;3.60;100.00;100601.03;5068309;28;21648;-70
2023/12/11 03:34:12;;;;;;;2.15;0.40;;;;;;;3.72;100.00;100601.19;5071716;28;20124;-70
2023/12/11 03:36:38;;;;;;;5.70;0.85;;;;;;;3.79;100.00;100592.13;5067908;28;20666;-70
2023/12/11 03:39:03;;;;;;;8.43;0.95;;;;;;;3.80;100.00;100586.88;5068894;28;20145;-70
2023/12/11 03:41:29;;;;;;;4.07;0.90;;;;;;;3.79;100.00;100577.50;5068008;28;20028;-70
2023/12/11 03:43:54;;;;;;;3.15;0.88;;;;;;;3.78;100.00;100577.63;5067110;28;20070;-70
2023/12/11 03:46:20;;;;;;;1.88;0.52;;;;;;;3.78;100.00;100569.88;5065437;28;20035;-70
2023/12/11 03:48:45;;;;;;;1.40;0.57;;;;;;;3.80;100.00;100568.00;5070556;28;20127;-70
2023/12/11 03:51:11;;;;;;;5.32;1.10;;;;;;;3.83;100.00;100573.78;5072363;28;20051;-70
2023/12/11 03:53:36;;;;;;;3.40;0.82;;;;;;;3.86;100.00;100567.63;5069429;28;20123;-70
2023/12/11 03:56:01;;;;;;;6.43;1.17;;;;;;;3.88;100.00;100571.75;5070238;28;20029;-71
2023/12/11 03:58:27;;;;;;;3.25;0.82;;;;;;;3.91;100.00;100563.00;5070633;28;20028;-70
2023/12/11 04:00:52;;;;;;;2.35;0.82;;;;;;;3.96;100.00;100566.09;5072598;28;20162;-70
2023/12/11 04:03:18;;;;;;;3.42;0.60;;;;;;;3.98;100.00;100552.19;5059265;28;20047;-70
2023/12/11 04:05:43;;;;;;;3.95;0.98;;;;;;;4.03;100.00;100557.03;5069134;28;20478;-70
2023/12/11 04:08:09;;;;;;;2.53;0.88;;;;;;;4.03;100.00;100539.00;5067746;28;20119;-70
2023/12/11 04:10:34;;;;;;;2.38;0.80;;;;;;;4.02;100.00;100537.34;5064258;28;20031;-70
2023/12/11 04:13:00;;;;;;;1.65;0.82;;;;;;;4.04;100.00;100540.66;5066880;28;20032;-70
2023/12/11 04:15:25;;;;;;;3.78;0.98;;;;;;;4.07;100.00;100543.03;5065325;28;20040;-70
2023/12/11 04:17:51;;;;;;;4.18;0.98;;;;;;;4.07;100.00;100548.19;5071333;28;20415;-70
2023/12/11 04:20:16;;;;;;;7.55;1.00;;;;;;;4.03;100.00;100549.31;5060237;28;20074;-70
2023/12/11 04:22:42;;;;;;;4.43;1.20;;;;;;;4.03;100.00;100546.72;5068009;28;20051;-70
2023/12/11 04:25:07;;;;;;;4.78;1.02;;;;;;;4.01;100.00;100540.84;5066796;28;20028;-70
2023/12/11 04:27:33;;;;;;;2.78;0.70;;;;;;;4.05;100.00;100537.13;5070955;28;20052;-70
2023/12/11 04:29:58;;;;;;;3.03;1.08;;;;;;;4.09;100.00;100548.91;5069187;28;20812;-71
2023/12/11 04:32:24;;;;;;;3.58;1.00;;;;;;;4.14;100.00;100559.75;5071669;28;20427;-70
2023/12/11 04:34:49;;;;;;;4.38;1.15;;;;;;;4.18;100.00;100556.03;5067225;28;20128;-70
2023/12/11 04:37:15;;;;;;;3.58;0.95;;;;;;;4.21;100.00;100558.41;5068596;28;20546;-70
2023/12/11 04:39:40;;;;;;;2.50;0.82;;;;;;;4.22;100.00;100552.34;5065735;28;20831;-70
2023/12/11 04:42:06;;;;;;;2.35;0.90;;;;;;;4.22;100.00;100562.66;5066357;28;20016;-70
2023/12/11 04:44:31;;;;;;;8.32;1.05;;;;;;;4.23;100.00;100574.63;5070084;28;20055;-70
2023/12/11 04:46:57;;;;;;;8.48;1.33;;;;;;;4.19;100.00;100574.91;5071785;28;20119;-71
2023/12/11 04:49:22;;;;;;;4.72;1.08;;;;;;;4.14;100.00;100567.47;5068733;28;20499;-70
2023/12/11 04:51:48;;;;;;;2.42;0.80;;;;;;;4.08;100.00;100565.31;5068037;28;20122;-70
2023/12/11 04:54:13;;;;;;;5.72;0.88;;;;;;;4.10;100.00;100575.53;5067953;28;20032;-70
2023/12/11 04:56:40;;;;;;;6.32;0.95;;;;;;;4.13;100.00;100565.84;5060418;28;20119;-70
2023/12/11 04:59:05;;;;;;;8.02;1.70;;;;;;;4.18;100.00;100553.47;5062443;28;20040;-70
2023/12/11 05:01:31;;;;;;;6.75;1.05;;;;;;;4.20;100.00;100546.44;5070878;28;20040;-70
2023/12/11 05:03:56;;;;;;;4.72;1.23;;;;;;;4.26;100.00;100540.84;5066503;28;20044;-70
2023/12/11 05:06:22;;;;;;;7.32;1.92;;;;;;;4.27;100.00;100529.63;5064524;28;20063;-70
2023/12/11 05:08:47;;;;;;;4.35;0.70;;;;;;;4.28;100.00;100513.22;5060533;28;20695;-70
2023/12/11 05:11:13;;;;;;;4.18;1.05;;;;;;;4.29;100.00;100514.84;5068217;28;20055;-70
2023/12/11 05:13:38;;;;;;;6.05;1.00;;;;;;;4.35;100.00;100513.63;5068498;28;20032;-70
2023/12/11 05:16:04;;;;;;;4.32;1.17;;;;;;;4.43;100.00;100519.09;5071133;28;20032;-70
2023/12/11 05:18:29;;;;;;;3.08;1.30;;;;;;;4.42;100.00;100522.59;5070700;28;20184;-70
2023/12/11 05:20:55;;;;;;;3.95;1.40;;;;;;;4.31;100.00;100513.00;5074263;28;20067;-70
2023/12/11 05:23:20;;;;;;;4.68;1.25;;;;;;;4.24;100.00;100542.75;5063339;28;20036;-70
2023/12/11 05:25:46;;;;;;;2.47;1.20;;;;;;;4.21;100.00;100544.69;5067179;28;20035;-72
2023/12/11 05:28:12;;;;;;;2.05;1.02;;;;;;;4.32;100.00;100540.44;5070326;28;20036;-70
2023/12/11 05:30:38;;;;;;;5.95;1.65;;;;;;;4.42;100.00;100535.50;5067710;28;20067;-70
2023/12/11 05:33:03;;;;;;;2.75;1.20;;;;;;;4.43;100.00;100541.50;5067815;28;20067;-70
2023/12/11 05:35:29;;;;;;;5.65;1.33;;;;;;;4.38;100.00;100539.22;5067128;28;20413;-70
2023/12/11 05:37:57;;;;;;;4.72;1.58;;;;;;;4.28;100.00;100554.47;5063141;28;20382;-70
2023/12/11 05:40:23;;;;;;;4.57;1.10;;;;;;;4.22;100.00;100546.34;5056301;28;20041;-70
2023/12/11 05:42:48;;;;;;;2.17;0.77;;;;;;;4.16;100.00;100547.56;5059704;28;20604;-70
2023/12/11 05:45:14;;;;;;;6.07;0.98;;;;;;;4.11;100.00;100552.22;5058588;28;20034;-71
2023/12/11 05:47:39;;;;;;;4.80;1.88;;;;;;;4.12;100.00;100553.03;5055225;28;20048;-70
2023/12/11 05:50:05;;;;;;;5.93;1.95;;;;;;;4.14;100.00;100554.59;5057463;28;20059;-70
2023/12/11 05:52:31;;;;;;;4.00;1.65;;;;;;;4.14;100.00;100561.50;5057823;28;20094;-70
2023/12/11 05:54:57;;;;;;;4.07;1.67;;;;;;;4.16;100.00;100570.78;5060589;28;20030;-71
2023/12/11 05:57:22;;;;;;;5.38;2.08;;;;;;;4.18;100.00;100563.78;5057731;28;20033;-70
2023/12/11 05:59:48;;;;;;;9.40;1.60;;;;;;;4.21;100.00;100567.91;5067079;28;20056;-70
2023/12/11 06:02:14;;;;;;;4.38;2.05;;;;;;;4.15;100.00;100574.28;5065118;28;20029;-70
2023/12/11 06:04:39;;;;;;;4.95;1.67;;;;;;;4.12;100.00;100578.81;5064843;28;20040;-70
2023/12/11 06:07:06;;;;;;;5.15;1.30;;;;;;;4.09;100.00;100584.19;5066425;28;20367;-70
2023/12/11 06:09:31;;;;;;;5.50;1.40;;;;;;;4.09;100.00;100587.59;5067750;28;20036;-70
2023/12/11 06:11:56;;;;;;;10.82;1.38;;;;;;;4.12;100.00;100589.13;5068303;28;20035;-70
2023/12/11 06:14:23;;;;;;;4.38;1.58;;;;;;;4.07;100.00;100591.19;5067752;28;20181;-70
2023/12/11 06:16:48;;;;;;;8.55;1.52;;;;;;;4.03;100.00;100621.50;5068660;28;20036;-70
2023/12/11 06:19:14;;;;;;;8.07;2.13;;;;;;;4.00;100.00;100626.84;5071503;28;20024;-70
2023/12/11 06:21:40;;;;;;;6.18;1.98;;;;;;;3.99;100.00;100627.78;5066642;28;20048;-70
2023/12/11 06:24:07;;;;;;;6.57;1.48;;;;;;;3.94;100.00;100617.75;5068769;28;20027;-70
2023/12/11 06:26:36;;;;;;;3.33;1.52;;;;;;;3.92;100.00;100629.09;5068516;28;20384;-70
2023/12/11 06:29:02;;;;;;;6.95;1.60;;;;;;;3.94;100.00;100634.97;5074639;28;20033;-70
2023/12/11 06:31:29;;;;;;;9.02;1.95;;;;;;;3.96;100.00;100635.72;5069533;28;20078;-71
2023/12/11 06:33:55;;;;;;;5.70;1.42;;;;;;;3.94;100.00;100642.72;5071885;28;20395;-70
2023/12/11 06:36:21;;;;;;;3.65;1.10;;;;;;;3.93;100.00;100635.91;5072139;28;20036;-70
2023/12/11 06:38:48;;;;;;;4.88;1.50;;;;;;;3.90;100.00;100623.19;5070549;28;20025;-70
2023/12/11 06:41:13;;;;;;;8.63;2.08;;;;;;;3.88;100.00;100612.16;5075618;28;20038;-71
2023/12/11 06:43:39;;;;;;;10.20;2.30;;;;;;;3.92;100.00;100600.72;5071572;28;20041;-71
2023/12/11 06:46:04;;;;;;;4.85;1.55;;;;;;;3.91;100.00;100594.75;5074794;28;20024;-70
2023/12/11 06:48:30;;;;;;;5.07;1.73;;;;;;;3.99;100.00;100558.16;5067844;28;20048;-71
2023/12/11 06:50:56;;;;;;;4.70;2.35;;;;;;;4.05;100.00;100493.31;5068628;28;20032;-71
2023/12/11 06:53:22;;;;;;;7.95;2.22;;;;;;;4.14;100.00;100460.94;5068858;28;20914;-71
2023/12/11 06:55:47;;;;;;;5.10;1.77;;;;;;;4.06;100.00;100497.53;5069054;28;20123;-72
2023/12/11 06:58:14;;;;;;;16.15;5.47;;;;;;;3.98;100.00;100498.03;5073358;28;20024;-72
2023/12/11 07:00:39;;;;;;;14.32;6.72;;;;;;;3.94;100.00;100511.22;5065885;28;20032;-72
2023/12/11 07:03:05;;;;;;;4.90;2.78;;;;;;;3.90;100.00;100540.72;5068194;28;20044;-72
2023/12/11 07:05:31;;;;;;;6.40;3.10;;;;;;;3.93;100.00;100553.41;5066062;28;20032;-72
2023/12/11 07:07:57;;;;;;;10.95;5.30;;;;;;;4.02;100.00;100562.31;5067425;28;20396;-72
2023/12/11 07:10:23;;;;;;;6.85;2.65;;;;;;;4.09;100.00;100579.03;5068544;28;20025;-70
2023/12/11 07:12:49;;;;;;;10.95;3.90;;;;;;;4.27;100.00;100576.03;5067874;28;20028;-72
2023/12/11 07:15:14;;;;;;;9.32;3.83;;;;;;;4.29;100.00;100566.44;5065938;28;20485;-72
2023/12/11 07:17:40;;;;;;;7.35;3.10;;;;;;;4.29;100.00;100565.63;5070977;28;20079;-72
2023/12/11 07:20:06;;;;;;;5.55;1.75;;;;;;;4.18;100.00;100566.34;5072170;28;20020;-72
2023/12/11 07:22:34;;;;;;;10.27;1.40;;;;;;;4.01;100.00;100566.63;5069608;28;20055;-70
2023/12/11 07:25:00;;;;;;;8.55;2.17;;;;;;;3.91;100.00;100563.81;5072458;28;20481;-69
2023/12/11 07:27:25;;;;;;;5.68;2.60;;;;;;;4.15;100.00;100551.09;5066788;28;20086;-69
2023/12/11 07:29:51;;;;;;;7.60;2.33;;;;;;;4.31;100.00;100537.97;5072867;28;20109;-70
2023/12/11 07:32:16;;;;;;;8.38;3.67;;;;;;;4.41;100.00;100528.69;5065144;28;20211;-69
2023/12/11 07:34:43;;;;;;;5.18;1.95;;;;;;;4.42;100.00;100525.19;5062929;28;20044;-69
2023/12/11 07:37:09;;;;;;;9.57;2.92;;;;;;;4.43;100.00;100520.84;5065298;28;20031;-70
2023/12/11 07:39:35;;;;;;;6.22;2.35;;;;;;;4.45;100.00;100529.31;5059590;28;20159;-70
2023/12/11 07:42:00;;;;;;;4.22;2.20;;;;;;;4.46;100.00;100531.78;5064415;28;20058;-72
2023/12/11 07:44:26;;;;;;;9.95;3.00;;;;;;;4.49;100.00;100533.34;5060667;28;20033;-72
2023/12/11 07:46:52;;;;;;;7.75;2.72;;;;;;;4.60;100.00;100530.84;5066273;28;20108;-71
2023/12/11 07:49:17;;;;;;;6.43;2.72;;;;;;;4.79;100.00;100533.81;5066602;28;20113;-71
2023/12/11 07:51:43;;;;;;;6.82;2.63;;;;;;;4.83;100.00;100524.09;5069491;28;20432;-70
2023/12/11 07:54:09;;;;;;;6.45;2.58;;;;;;;4.77;100.00;100525.34;5067598;28;20083;-71
2023/12/11 07:56:36;;;;;;;5.20;1.75;;;;;;;4.70;100.00;100529.31;5070423;28;20467;-71
2023/12/11 07:59:02;;;;;;;7.85;2.78;;;;;;;4.59;100.00;100532.63;5072856;28;20105;-71
2023/12/11 08:01:31;;;;;;;13.63;3.75;;;;;;;4.57;100.00;100523.31;5067699;28;20478;-71
2023/12/11 08:03:57;;;;;;;7.65;2.97;;;;;;;4.56;100.00;100513.94;5070143;28;20135;-70
2023/12/11 08:06:23;;;;;;;7.68;2.65;;;;;;;4.54;100.00;100503.72;5066129;28;20043;-70
2023/12/11 08:08:49;;;;;;;4.95;2.30;;;;;;;4.52;100.00;100520.22;5067891;28;20086;-70
2023/12/11 08:11:30;;;;;;;6.30;2.60;;;;;;;4.53;100.00;100522.72;5066190;28;20070;-70
2023/12/11 08:13:57;;;;;;;6.55;2.22;;;;;;;4.53;100.00;100521.88;5068608;28;20087;-70
2023/12/11 08:16:25;;;;;;;8.23;2.53;;;;;;;4.53;100.00;100516.72;5066973;28;20081;-70
2023/12/11 08:18:51;;;;;;;4.93;2.22;;;;;;;4.56;100.00;100501.84;5068448;28;20040;-71
2023/12/11 08:21:17;;;;;;;7.90;2.63;;;;;;;4.63;100.00;100489.38;5073325;28;20032;-71
2023/12/11 08:23:51;;;;;;;9.63;2.30;;;;;;;4.71;100.00;100479.34;5071935;28;20032;-70
2023/12/11 08:26:20;;;;;;;6.97;2.30;;;;;;;4.88;100.00;100481.53;5066752;28;20029;-70
2023/12/11 08:28:47;;;;;;;9.05;3.22;;;;;;;5.02;100.00;100508.16;5066647;28;20032;-70
2023/12/11 08:31:13;;;;;;;9.68;5.07;;;;;;;5.15;100.00;100519.28;5070916;28;20036;-70
2023/12/11 08:33:38;;;;;;;11.82;5.10;;;;;;;5.27;100.00;100505.47;5070786;28;20052;-70
2023/12/11 08:36:05;;;;;;;11.27;4.25;;;;;;;5.34;100.00;100510.09;5068811;28;20477;-70
2023/12/11 08:38:32;;;;;;;7.43;3.55;;;;;;;5.52;100.00;100507.13;5070812;28;20068;-72
2023/12/11 08:40:58;;;;;;;8.27;3.38;;;;;;;5.58;100.00;100486.84;5070309;28;20422;-72
2023/12/11 08:43:23;;;;;;;6.28;2.75;;;;;;;5.57;100.00;100492.13;5071027;28;20127;-72
2023/12/11 08:45:49;;;;;;;6.93;3.17;;;;;;;5.52;100.00;100495.03;5070418;28;20029;-72
2023/12/11 08:48:15;;;;;;;6.28;2.50;;;;;;;5.53;100.00;100499.25;5073054;28;20119;-72
2023/12/11 08:50:41;;;;;;;6.32;3.42;;;;;;;5.65;100.00;100500.97;5071772;28;20127;-72
2023/12/11 08:53:07;;;;;;;7.93;3.40;;;;;;;5.76;100.00;100494.16;5071652;28;20033;-72
2023/12/11 08:55:33;;;;;;;8.85;2.67;;;;;;;5.74;100.00;100488.28;5074960;28;20118;-73
2023/12/11 08:57:58;;;;;;;6.35;2.80;;;;;;;5.67;100.00;100473.22;5072261;28;20455;-72
2023/12/11 09:00:24;;;;;;;6.28;3.28;;;;;;;5.63;100.00;100458.91;5068889;28;20127;-72
2023/12/11 09:02:49;;;;;;;6.53;3.08;;;;;;;5.65;100.00;100456.19;5069904;28;20035;-72
2023/12/11 09:05:17;;;;;;;7.05;3.15;;;;;;;5.66;100.00;100453.50;5066032;28;20037;-72
2023/12/11 09:07:42;;;;;;;7.07;2.67;;;;;;;5.85;100.00;100459.88;5075842;28;20028;-72
2023/12/11 09:10:09;;;;;;;6.45;2.10;;;;;;;6.01;100.00;100467.34;5071941;28;20510;-72
2023/12/11 09:12:36;;;;;;;5.50;2.67;;;;;;;6.10;100.00;100470.06;5065374;28;20060;-72
2023/12/11 09:15:02;;;;;;;4.90;2.33;;;;;;;6.17;100.00;100452.28;5070548;28;20714;-72
2023/12/11 09:17:28;;;;;;;10.98;3.38;;;;;;;6.24;100.00;100427.59;5068912;28;20363;-72
2023/12/11 09:19:54;;;;;;;8.68;3.30;;;;;;;6.32;100.00;100418.31;5073609;28;20078;-72
2023/12/11 09:22:19;;;;;;;5.00;1.98;;;;;;;6.40;100.00;100422.91;5070437;28;20024;-72
2023/12/11 09:24:44;;;;;;;5.35;2.38;;;;;;;6.40;100.00;100432.44;5069735;28;20466;-72
2023/12/11 09:27:10;;;;;;;5.68;2.53;;;;;;;6.31;100.00;100429.59;5063624;28;20075;-72
2023/12/11 09:29:36;;;;;;;3.92;1.90;;;;;;;6.31;100.00;100427.03;5069376;28;20046;-72
2023/12/11 09:32:02;;;;;;;8.10;2.60;;;;;;;6.35;100.00;100413.84;5070664;28;20046;-72
2023/12/11 09:34:28;;;;;;;6.72;2.30;;;;;;;6.44;100.00;100408.78;5067239;28;20053;-71
2023/12/11 09:36:54;;;;;;;6.32;2.58;;;;;;;6.58;100.00;100407.72;5070134;28;20044;-71
2023/12/11 09:39:22;;;;;;;8.55;3.65;;;;;;;6.69;100.00;100399.91;5067397;28;20055;-71
2023/12/11 09:41:48;;;;;;;6.65;2.33;;;;;;;6.76;100.00;100393.28;5070149;28;20115;-72
2023/12/11 09:44:16;;;;;;;8.38;3.50;;;;;;;6.79;100.00;100377.53;5069096;28;20032;-72
2023/12/11 09:46:54;;;;;;;6.68;3.03;;;;;;;6.81;100.00;100380.81;5074833;28;20028;-72
2023/12/11 09:49:20;;;;;;;5.72;2.55;;;;;;;6.85;100.00;100368.44;5069088;28;20024;-72
2023/12/11 09:51:46;;;;;;;4.50;2.08;;;;;;;6.84;99.52;100372.78;5073821;28;20043;-72
2023/12/11 09:54:11;;;;;;;7.43;3.10;;;;;;;6.91;99.63;100358.41;5062812;28;20434;-72
2023/12/11 09:56:39;;;;;;;8.55;2.92;;;;;;;6.94;99.49;100350.41;5061021;28;20111;-72
2023/12/11 09:59:05;;;;;;;6.53;2.40;;;;;;;7.00;100.00;100349.09;5075728;28;20024;-72
2023/12/11 10:01:32;;;;;;;5.45;2.20;;;;;;;7.06;100.00;100358.13;5068878;28;20024;-72
2023/12/11 10:03:57;;;;;;;5.80;2.60;;;;;;;7.11;98.23;100353.38;5066181;28;20555;-72
2023/12/11 10:06:23;;;;;;;5.78;2.67;;;;;;;7.07;98.04;100354.59;5063459;28;20078;-72
2023/12/11 10:08:53;;;;;;;5.63;2.40;;;;;;;7.03;97.96;100340.25;5059725;28;20036;-72
2023/12/11 10:11:22;;;;;;;8.23;2.75;;;;;;;7.06;98.64;100337.41;5062269;28;20169;-73
2023/12/11 10:13:48;;;;;;;9.27;2.85;;;;;;;7.07;98.74;100337.28;5062500;28;20458;-72
2023/12/11 10:16:35;;;;;;;5.20;2.08;;;;;;;7.15;97.96;100327.09;5064370;28;20079;-72
2023/12/11 10:19:01;;;;;;;7.40;2.20;;;;;;;7.23;98.24;100313.50;5064054;28;20089;-72
2023/12/11 10:21:35;;;;;;;6.10;2.38;;;;;;;7.21;98.99;100305.03;5062107;28;20036;-72
2023/12/11 10:24:03;;;;;;;5.82;2.17;;;;;;;7.24;98.13;100315.97;5063236;28;20036;-72
2023/12/11 10:26:33;;;;;;;8.68;2.67;;;;;;;7.29;99.18;100323.38;5067983;28;20123;-72
2023/12/11 10:29:21;;;;;;;6.53;2.20;;;;;;;7.34;99.26;100331.59;5069581;28;20037;-72
2023/12/11 10:31:48;;;;;;;7.45;3.30;;;;;;;7.42;98.86;100323.19;5070133;28;20052;-72
2023/12/11 10:34:13;;;;;;;7.95;2.25;;;;;;;7.43;99.14;100325.66;5069505;28;20479;-72
2023/12/11 10:36:49;;;;;;;9.25;3.45;;;;;;;7.51;98.56;100312.88;5069465;28;20116;-72
2023/12/11 10:39:15;;;;;;;5.30;2.28;;;;;;;7.54;98.92;100312.63;5069101;28;20094;-72
2023/12/11 10:41:44;;;;;;;5.25;2.60;;;;;;;7.60;98.25;100309.47;5067040;28;20036;-72
2023/12/11 10:44:21;;;;;;;4.85;2.10;;;;;;;7.71;98.85;100300.78;5069552;28;20496;-72
2023/12/11 10:46:49;;;;;;;7.20;2.63;;;;;;;7.76;97.51;100311.59;5065240;28;20389;-72
2023/12/11 10:49:15;;;;;;;6.93;2.50;;;;;;;7.91;97.37;100312.09;5069969;28;20025;-71
2023/12/11 10:51:41;;;;;;;5.70;2.00;;;;;;;8.08;97.78;100303.66;5070025;28;20029;-72
2023/12/11 10:54:06;;;;;;;4.78;1.85;;;;;;;8.13;95.88;100298.88;5068627;28;20110;-72
2023/12/11 10:56:32;;;;;;;6.88;2.03;;;;;;;8.16;96.60;100303.00;5069627;28;20040;-72
2023/12/11 10:58:58;;;;;;;4.97;1.85;;;;;;;8.14;95.77;100297.94;5068121;28;20024;-72
2023/12/11 11:01:24;;;;;;;5.22;1.88;;;;;;;8.01;95.29;100291.38;5067889;28;20036;-71
2023/12/11 11:03:49;;;;;;;4.18;1.50;;;;;;;7.95;94.76;100292.72;5069635;28;20113;-71
2023/12/11 11:06:17;;;;;;;7.38;2.13;;;;;;;7.91;95.37;100306.91;5068505;28;20025;-71
2023/12/11 11:08:51;;;;;;;7.50;2.67;;;;;;;7.84;95.83;100309.19;5068714;28;20040;-71
2023/12/11 11:11:27;;;;;;;4.53;1.75;;;;;;;7.78;95.18;100308.88;5069255;28;20509;-71
2023/12/11 11:14:02;;;;;;;5.38;2.05;;;;;;;7.69;95.79;100307.06;5064737;28;20040;-71
2023/12/11 11:16:53;;;;;;;23.55;7.88;;;;;;;7.64;94.52;100307.44;5071849;28;20089;-72
2023/12/11 11:19:18;;;;;;;31.52;8.82;;;;;;;7.57;94.20;100299.38;5068232;28;20381;-72
2023/12/11 11:22:20;;;;;;;26.55;7.90;;;;;;;7.53;94.02;100304.97;5072952;28;20130;-72
2023/12/11 11:24:45;;;;;;;24.50;6.10;;;;;;;7.48;94.79;100302.75;5063009;28;20044;-71